Time;durP1;ratioP1;P1;durP2;ratioP2;P2;SDS_P1;SDS_P2;PMS_P1;PMS_P2;Temp;Humidity;BMP_temperature;BMP_pressure;BME280_temperature;BME280_humidity;BME280_pressure;Samples;Min_cycle;Max_cycle;Signal;HPM_P1;HPM_P2
2021/06/27 00:01:22;;;;;;;1999.90;999.90;;;18.10;99.90;;;;;;5098753;28;20207;-80
2021/06/27 00:03:48;;;;;;;1999.90;999.90;;;18.10;99.90;;;;;;5100847;28;20172;-80
2021/06/27 00:06:14;;;;;;;1999.90;999.90;;;18.10;99.90;;;;;;5085016;28;20187;-80
2021/06/27 00:08:40;;;;;;;1999.90;999.90;;;18.10;99.90;;;;;;5102996;28;20231;-80
2021/06/27 00:11:07;;;;;;;1999.90;999.90;;;18.10;99.90;;;;;;5100118;28;20221;-80
2021/06/27 00:13:34;;;;;;;1999.90;999.90;;;18.10;99.90;;;;;;5082284;28;20182;-80
2021/06/27 00:16:00;;;;;;;1999.90;999.90;;;18.10;99.90;;;;;;5100483;28;20177;-78
2021/06/27 00:18:27;;;;;;;1999.90;999.90;;;18.10;99.90;;;;;;5083626;28;20187;-79
2021/06/27 00:20:59;;;;;;;1999.90;999.90;;;18.10;99.90;;;;;;5101457;28;20227;-80
2021/06/27 00:23:29;;;;;;;1999.90;999.90;;;18.00;99.90;;;;;;5100214;28;20187;-79
2021/06/27 00:25:56;;;;;;;1999.90;999.90;;;17.90;99.90;;;;;;5099757;28;20192;-79
2021/06/27 00:28:22;;;;;;;1999.90;999.90;;;17.90;99.90;;;;;;5099113;28;20286;-79
2021/06/27 00:30:50;;;;;;;1999.90;999.90;;;17.90;99.90;;;;;;5081331;28;20251;-79
2021/06/27 00:33:15;;;;;;;1999.90;999.90;;;17.80;99.90;;;;;;5081625;28;20245;-80
2021/06/27 00:35:41;;;;;;;1999.90;999.90;;;17.80;99.90;;;;;;5098273;28;20265;-79
2021/06/27 00:38:07;;;;;;;1999.90;999.90;;;17.90;99.90;;;;;;5081688;28;20176;-80
2021/06/27 00:40:34;;;;;;;1999.90;999.90;;;17.90;99.90;;;;;;5098723;28;20230;-79
2021/06/27 00:43:00;;;;;;;1999.90;999.90;;;17.80;99.90;;;;;;5080955;28;20190;-79
2021/06/27 00:45:29;;;;;;;1999.90;999.90;;;17.80;99.90;;;;;;5081302;28;20184;-79
2021/06/27 00:47:58;;;;;;;1999.90;999.90;;;17.70;99.90;;;;;;5099514;28;20223;-79
2021/06/27 00:50:30;;;;;;;1999.90;999.90;;;17.60;99.90;;;;;;5099325;28;20720;-79
2021/06/27 00:52:56;;;;;;;1999.90;999.90;;;17.50;99.90;;;;;;5098948;28;20187;-79
2021/06/27 00:55:22;;;;;;;1999.90;999.90;;;17.40;99.90;;;;;;5080016;28;20183;-79
2021/06/27 00:57:51;;;;;;;1999.90;999.90;;;17.50;99.90;;;;;;5081595;28;20194;-79
2021/06/27 01:00:20;;;;;;;1999.90;999.90;;;17.50;99.90;;;;;;5100237;28;20205;-80
2021/06/27 01:02:47;;;;;;;1999.90;999.90;;;17.50;99.90;;;;;;5099400;28;20180;-80
2021/06/27 01:05:18;;;;;;;1999.90;999.90;;;17.40;99.90;;;;;;5098621;28;20183;-80
2021/06/27 01:07:44;;;;;;;1999.90;999.90;;;17.50;99.90;;;;;;5099666;28;20208;-79
2021/06/27 01:10:10;;;;;;;1999.90;999.90;;;17.40;99.90;;;;;;5098191;28;20271;-79
2021/06/27 01:12:36;;;;;;;1999.90;999.90;;;17.40;99.90;;;;;;5099086;28;20176;-79
2021/06/27 01:15:04;;;;;;;1999.90;999.90;;;17.40;99.90;;;;;;5080560;28;20257;-79
2021/06/27 01:17:30;;;;;;;1999.90;999.90;;;17.40;99.90;;;;;;5081138;28;20191;-79
2021/06/27 01:19:56;;;;;;;1999.90;999.90;;;17.40;99.90;;;;;;5079941;28;20210;-81
2021/06/27 01:22:24;;;;;;;1999.90;999.90;;;17.40;99.90;;;;;;5099403;28;20183;-80
2021/06/27 01:24:50;;;;;;;1999.90;999.90;;;17.20;99.90;;;;;;5098919;28;20180;-79
2021/06/27 01:27:16;;;;;;;1999.90;999.90;;;17.10;99.90;;;;;;5098249;28;20213;-80
2021/06/27 01:29:41;;;;;;;1999.90;999.90;;;16.90;99.90;;;;;;5081808;28;20187;-80
2021/06/27 01:32:10;;;;;;;1999.90;999.90;;;16.90;99.90;;;;;;5101492;28;20174;-80
2021/06/27 01:34:38;;;;;;;1999.90;999.90;;;17.00;99.90;;;;;;5083758;28;20182;-80
2021/06/27 01:37:05;;;;;;;1999.90;999.90;;;17.10;99.90;;;;;;5103169;28;20176;-80
2021/06/27 01:39:32;;;;;;;1999.90;999.90;;;17.10;99.90;;;;;;5101451;28;20219;-80
2021/06/27 01:41:57;;;;;;;1999.90;999.90;;;17.20;99.90;;;;;;5097501;28;20213;-81
2021/06/27 01:44:24;;;;;;;1999.90;999.90;;;17.20;99.90;;;;;;5099452;28;20176;-79
2021/06/27 01:46:50;;;;;;;1999.90;999.90;;;17.30;99.90;;;;;;5101762;28;20171;-79
2021/06/27 01:49:15;;;;;;;1999.90;999.90;;;17.30;99.90;;;;;;5085563;28;20201;-78
2021/06/27 01:51:41;;;;;;;1999.90;999.90;;;17.40;99.90;;;;;;5103595;28;20195;-79
2021/06/27 01:54:07;;;;;;;1999.90;999.90;;;17.40;99.90;;;;;;5105317;28;20191;-80
2021/06/27 01:56:34;;;;;;;1999.90;999.90;;;17.30;99.90;;;;;;5086128;28;20198;-80
2021/06/27 01:59:03;;;;;;;1999.90;999.90;;;17.30;99.90;;;;;;5105337;28;20243;-78
2021/06/27 02:01:35;;;;;;;1999.90;999.90;;;17.30;99.90;;;;;;5086708;28;20206;-78
2021/06/27 02:04:02;;;;;;;1999.90;999.90;;;17.30;99.90;;;;;;5087822;28;20184;-78
2021/06/27 02:06:28;;;;;;;1999.90;999.90;;;17.30;99.90;;;;;;5105471;28;20180;-79
2021/06/27 02:08:56;;;;;;;1999.90;999.90;;;17.30;99.90;;;;;;5104835;28;20222;-78
2021/06/27 02:11:24;;;;;;;1999.90;999.90;;;17.30;99.90;;;;;;5104628;28;20191;-79
2021/06/27 02:13:51;;;;;;;1999.90;999.90;;;17.30;99.90;;;;;;5086764;28;20662;-79
2021/06/27 02:16:17;;;;;;;1999.90;999.90;;;17.30;99.90;;;;;;5104907;28;20164;-79
2021/06/27 02:18:45;;;;;;;1999.90;999.90;;;17.30;99.90;;;;;;5104175;28;20205;-79
2021/06/27 02:21:35;;;;;;;1999.90;999.90;;;17.20;99.90;;;;;;5104636;28;20192;-79
2021/06/27 02:24:02;;;;;;;1999.90;999.90;;;17.10;99.90;;;;;;5103967;28;20215;-79
2021/06/27 02:26:28;;;;;;;1999.90;999.90;;;17.10;99.90;;;;;;5105032;28;20230;-79
2021/06/27 02:28:57;;;;;;;1999.90;999.90;;;17.10;99.90;;;;;;5104266;28;20565;-78
2021/06/27 02:31:23;;;;;;;1999.90;999.90;;;17.10;99.90;;;;;;5100061;28;20191;-79
2021/06/27 02:33:49;;;;;;;1999.90;999.90;;;17.10;99.90;;;;;;5107841;28;20225;-80
2021/06/27 02:36:16;;;;;;;1999.90;999.90;;;17.10;99.90;;;;;;5087331;28;20181;-79
2021/06/27 02:38:41;;;;;;;1999.90;999.90;;;17.00;99.90;;;;;;5085992;28;20686;-79
2021/06/27 02:41:09;;;;;;;1999.90;999.90;;;17.00;99.90;;;;;;5104063;28;20197;-78
2021/06/27 02:43:35;;;;;;;1999.90;999.90;;;17.00;99.90;;;;;;5086276;28;20182;-79
2021/06/27 02:46:01;;;;;;;1999.90;999.90;;;17.00;99.90;;;;;;5100975;28;20320;-78
2021/06/27 02:48:27;;;;;;;1999.90;999.90;;;17.00;99.90;;;;;;5084686;28;20199;-78
2021/06/27 02:50:53;;;;;;;1999.90;999.90;;;17.00;99.90;;;;;;5099576;28;20216;-80
2021/06/27 02:53:19;;;;;;;1999.90;999.90;;;17.00;99.90;;;;;;5103238;28;20179;-78
2021/06/27 02:55:45;;;;;;;1999.90;999.90;;;17.00;99.90;;;;;;5103421;28;20174;-80
2021/06/27 02:58:12;;;;;;;1999.90;999.90;;;17.10;99.90;;;;;;5085694;28;20187;-80
2021/06/27 03:00:37;;;;;;;1999.90;999.90;;;17.10;99.90;;;;;;5098230;28;20192;-77
2021/06/27 03:03:03;;;;;;;1999.90;999.90;;;16.90;99.90;;;;;;5084708;28;20180;-80
2021/06/27 03:05:29;;;;;;;1999.90;999.90;;;17.00;99.90;;;;;;5103982;28;20638;-78
2021/06/27 03:07:55;;;;;;;1999.90;999.90;;;17.00;99.90;;;;;;5085467;28;20210;-80
2021/06/27 03:10:21;;;;;;;1999.90;999.90;;;17.00;99.90;;;;;;5103525;28;20195;-79
2021/06/27 03:12:48;;;;;;;1999.90;999.90;;;17.00;99.90;;;;;;5083152;28;20254;-80
2021/06/27 03:15:18;;;;;;;1999.90;999.90;;;17.10;99.90;;;;;;5100332;28;20555;-78
2021/06/27 03:17:44;;;;;;;1999.90;999.90;;;17.00;99.90;;;;;;5082118;28;20177;-78
2021/06/27 03:20:12;;;;;;;1999.90;999.90;;;17.00;99.90;;;;;;5082824;28;20249;-80
2021/06/27 03:22:39;;;;;;;1999.90;999.90;;;17.00;99.90;;;;;;5102455;28;20187;-79
2021/06/27 03:25:07;;;;;;;1999.90;999.90;;;17.00;99.90;;;;;;5087129;28;20193;-80
2021/06/27 03:27:33;;;;;;;1999.90;999.90;;;17.00;99.90;;;;;;5086293;28;20204;-80
2021/06/27 03:29:59;;;;;;;1999.90;999.90;;;17.00;99.90;;;;;;5106303;28;20198;-79
2021/06/27 03:32:24;;;;;;;1999.90;999.90;;;17.10;99.90;;;;;;5106984;28;20205;-79
2021/06/27 03:34:50;;;;;;;1999.90;999.90;;;17.10;99.90;;;;;;5083086;28;20186;-80
2021/06/27 03:37:16;;;;;;;1999.90;999.90;;;17.10;99.90;;;;;;5092737;28;20188;-79
2021/06/27 03:39:42;;;;;;;1999.90;999.90;;;17.10;99.90;;;;;;5086232;28;20204;-80
2021/06/27 03:42:08;;;;;;;1999.90;999.90;;;17.10;99.90;;;;;;5100157;28;20546;-79
2021/06/27 03:44:34;;;;;;;1999.90;999.90;;;17.10;99.90;;;;;;5095132;28;20216;-78
2021/06/27 03:46:59;;;;;;;1999.90;999.90;;;17.10;99.90;;;;;;5083318;28;20192;-79
2021/06/27 03:49:25;;;;;;;1999.90;999.90;;;17.10;99.90;;;;;;5081935;28;20183;-79
2021/06/27 03:51:51;;;;;;;1999.90;999.90;;;17.00;99.90;;;;;;5084341;28;20180;-79
2021/06/27 03:54:18;;;;;;;1999.90;999.90;;;17.00;99.90;;;;;;5086430;28;20587;-78
2021/06/27 03:56:44;;;;;;;1999.90;999.90;;;17.00;99.90;;;;;;5098765;28;20716;-79
2021/06/27 03:59:10;;;;;;;1999.90;999.90;;;16.90;99.90;;;;;;5086432;28;20187;-79
2021/06/27 04:01:35;;;;;;;1999.90;999.90;;;16.90;99.90;;;;;;5099034;28;20226;-79
2021/06/27 04:04:02;;;;;;;1999.90;999.90;;;16.90;99.90;;;;;;5103167;28;20273;-79
2021/06/27 04:06:29;;;;;;;1999.90;999.90;;;16.90;99.90;;;;;;5080202;28;20196;-78
2021/06/27 04:08:54;;;;;;;1999.90;999.90;;;16.90;99.90;;;;;;5097029;28;20210;-79
2021/06/27 04:11:20;;;;;;;1999.90;999.90;;;16.90;99.90;;;;;;5100103;28;20672;-79
2021/06/27 04:13:46;;;;;;;1999.90;999.90;;;16.90;99.90;;;;;;5098217;28;20175;-79
2021/06/27 04:16:12;;;;;;;1999.90;999.90;;;16.90;99.90;;;;;;5097313;28;20213;-79
2021/06/27 04:18:38;;;;;;;1999.90;999.90;;;16.80;99.90;;;;;;5099089;28;20184;-79
2021/06/27 04:21:06;;;;;;;1999.90;999.90;;;16.80;99.90;;;;;;5100971;28;20202;-79
2021/06/27 04:23:34;;;;;;;1999.90;999.90;;;16.80;99.90;;;;;;5079826;28;20559;-79
2021/06/27 04:26:00;;;;;;;1999.90;999.90;;;16.80;99.90;;;;;;5075224;28;20196;-79
2021/06/27 04:28:26;;;;;;;1999.90;999.90;;;16.80;99.90;;;;;;5103760;28;20242;-79
2021/06/27 04:30:52;;;;;;;1999.90;999.90;;;16.80;99.90;;;;;;5103988;28;20193;-80
2021/06/27 04:33:17;;;;;;;1999.90;999.90;;;16.80;99.90;;;;;;5087530;28;20180;-81
2021/06/27 04:35:43;;;;;;;1999.90;999.90;;;16.90;99.90;;;;;;5105395;28;20202;-80
2021/06/27 04:38:12;;;;;;;1999.90;999.90;;;16.90;99.90;;;;;;5104425;28;20183;-80
2021/06/27 04:40:38;;;;;;;1999.90;999.90;;;16.90;99.90;;;;;;5105227;28;20196;-80
2021/06/27 04:43:05;;;;;;;1999.90;999.90;;;16.90;99.90;;;;;;5087929;28;20209;-79
2021/06/27 04:45:32;;;;;;;1999.90;999.90;;;17.00;99.90;;;;;;5087091;28;20183;-80
2021/06/27 04:48:04;;;;;;;1999.90;999.90;;;17.00;99.90;;;;;;5105538;28;20211;-81
2021/06/27 04:50:30;;;;;;;1999.90;999.90;;;17.10;99.90;;;;;;5086553;28;20226;-79
2021/06/27 04:52:56;;;;;;;1999.90;999.90;;;17.20;99.90;;;;;;5086334;28;20184;-81
2021/06/27 04:55:22;;;;;;;1999.90;999.90;;;17.20;99.90;;;;;;5087713;28;20183;-79
2021/06/27 04:57:48;;;;;;;1999.90;999.90;;;17.20;99.90;;;;;;5104745;28;20549;-78
2021/06/27 05:00:15;;;;;;;1999.90;999.90;;;17.30;99.90;;;;;;5104042;28;20566;-79
2021/06/27 05:02:40;;;;;;;1999.90;999.90;;;17.30;99.90;;;;;;5105894;28;20209;-80
2021/06/27 05:05:07;;;;;;;1999.90;999.90;;;17.30;99.90;;;;;;5105056;28;20183;-80
2021/06/27 05:07:33;;;;;;;1999.90;999.90;;;17.40;99.90;;;;;;5105408;28;20329;-80
2021/06/27 05:09:59;;;;;;;1999.90;999.90;;;17.50;99.90;;;;;;5105071;28;20196;-80
2021/06/27 05:12:27;;;;;;;1999.90;999.90;;;17.50;99.90;;;;;;5104880;28;20184;-80
2021/06/27 05:14:53;;;;;;;1999.90;999.90;;;17.40;99.90;;;;;;5104939;28;20171;-78
2021/06/27 05:17:19;;;;;;;1999.90;999.90;;;17.40;99.90;;;;;;5109140;28;20179;-78
2021/06/27 05:19:44;;;;;;;1999.90;999.90;;;17.50;99.90;;;;;;5090634;28;20195;-79
2021/06/27 05:22:11;;;;;;;1999.90;999.90;;;17.50;99.90;;;;;;5109099;28;20223;-80
2021/06/27 05:24:37;;;;;;;1999.90;999.90;;;17.50;99.90;;;;;;5091524;28;20176;-80
2021/06/27 05:27:03;;;;;;;1999.90;999.90;;;17.60;99.90;;;;;;5109428;28;20204;-80
2021/06/27 05:29:28;;;;;;;1999.90;999.90;;;17.60;99.90;;;;;;5109347;28;20196;-79
2021/06/27 05:31:54;;;;;;;1999.90;999.90;;;17.70;99.90;;;;;;5090452;28;20309;-80
2021/06/27 05:34:20;;;;;;;1999.90;999.90;;;17.70;99.90;;;;;;5108596;28;20263;-80
2021/06/27 05:36:45;;;;;;;1999.90;999.90;;;17.70;99.90;;;;;;5091345;28;20238;-79
2021/06/27 05:39:12;;;;;;;1999.90;999.90;;;17.70;99.90;;;;;;5091361;28;20180;-79
2021/06/27 05:41:39;;;;;;;1999.90;999.90;;;17.70;99.90;;;;;;5090452;28;20552;-79
2021/06/27 05:44:06;;;;;;;1999.90;999.90;;;17.70;99.90;;;;;;5109558;28;20183;-80
2021/06/27 05:46:32;;;;;;;1999.90;999.90;;;17.60;99.90;;;;;;5089322;28;20183;-80
2021/06/27 05:48:58;;;;;;;1999.90;999.90;;;17.70;99.90;;;;;;5108977;28;20225;-80
2021/06/27 05:51:25;;;;;;;1999.90;999.90;;;17.80;99.90;;;;;;5151330;22;20630;-75
2021/06/27 05:53:51;;;;;;;1999.90;999.90;;;17.90;99.90;;;;;;5116234;28;20697;-75
2021/06/27 05:56:19;;;;;;;1999.90;999.90;;;17.90;99.90;;;;;;5116423;28;20181;-74
2021/06/27 05:58:45;;;;;;;1999.90;999.90;;;18.00;99.90;;;;;;5097998;28;20170;-75
2021/06/27 06:01:13;;;;;;;1999.90;999.90;;;18.10;99.90;;;;;;5109840;28;20257;-75
2021/06/27 06:03:39;;;;;;;1999.90;999.90;;;18.20;99.90;;;;;;5077682;28;20190;-75
2021/06/27 06:06:05;;;;;;;1999.90;999.90;;;18.30;99.90;;;;;;5095891;28;20172;-75
2021/06/27 06:08:31;;;;;;;1999.90;999.90;;;18.40;99.90;;;;;;5077659;28;20203;-74
2021/06/27 06:10:57;;;;;;;1999.90;999.90;;;18.30;99.90;;;;;;5077510;28;20196;-74
2021/06/27 06:13:23;;;;;;;1999.90;999.90;;;18.50;99.90;;;;;;5095214;28;20180;-75
2021/06/27 06:15:49;;;;;;;1999.90;999.90;;;18.70;99.90;;;;;;5077584;28;20267;-75
2021/06/27 06:18:14;;;;;;;1999.90;999.90;;;18.90;99.90;;;;;;5095670;28;20202;-75
2021/06/27 06:20:40;;;;;;;1999.90;999.90;;;19.00;99.90;;;;;;5095714;28;20185;-74
2021/06/27 06:23:06;;;;;;;1999.90;999.90;;;19.10;99.90;;;;;;5095639;28;20186;-76
2021/06/27 06:25:31;;;;;;;1999.90;999.90;;;19.20;99.90;;;;;;5095485;28;20531;-75
2021/06/27 06:27:57;;;;;;;1999.90;999.90;;;19.20;99.90;;;;;;5092590;28;20204;-75
2021/06/27 06:30:23;;;;;;;1999.90;999.90;;;19.20;99.90;;;;;;5095246;28;20191;-75
2021/06/27 06:32:49;;;;;;;1999.90;999.90;;;19.20;99.90;;;;;;5077023;28;20626;-75
2021/06/27 06:35:14;;;;;;;1999.90;999.90;;;19.20;99.90;;;;;;5095405;28;20203;-75
2021/06/27 06:37:40;;;;;;;1999.90;999.90;;;19.30;99.90;;;;;;5095139;28;20186;-75
2021/06/27 06:40:07;;;;;;;1999.90;999.90;;;19.40;99.90;;;;;;5095573;28;20187;-75
2021/06/27 06:42:32;;;;;;;1999.90;999.90;;;19.40;99.90;;;;;;5077494;28;20208;-75
2021/06/27 06:44:58;;;;;;;1999.90;999.90;;;19.40;99.90;;;;;;5095362;28;20176;-75
2021/06/27 06:47:24;;;;;;;1999.90;999.90;;;19.40;99.90;;;;;;5094682;28;20311;-75
2021/06/27 06:49:50;;;;;;;1999.90;999.90;;;19.50;99.90;;;;;;5095017;28;20185;-75
2021/06/27 06:52:15;;;;;;;1999.90;999.90;;;19.60;99.90;;;;;;5076745;28;20219;-75
2021/06/27 06:54:41;;;;;;;1999.90;999.90;;;19.70;99.90;;;;;;5094863;28;20181;-75
2021/06/27 06:57:07;;;;;;;1999.90;999.90;;;19.70;99.90;;;;;;5076738;28;20173;-75
2021/06/27 06:59:33;;;;;;;1999.90;999.90;;;19.80;99.90;;;;;;5094989;28;20639;-75
2021/06/27 07:01:58;;;;;;;1999.90;999.90;;;19.70;99.90;;;;;;5094729;28;20232;-75
2021/06/27 07:04:24;;;;;;;1999.90;999.90;;;19.80;99.90;;;;;;5077154;28;20180;-75
2021/06/27 07:06:50;;;;;;;1999.90;999.90;;;19.90;99.90;;;;;;5094637;28;20182;-75
2021/06/27 07:09:16;;;;;;;1999.90;999.90;;;20.00;99.90;;;;;;5094134;28;20213;-74
2021/06/27 07:11:41;;;;;;;1999.90;999.90;;;20.00;99.90;;;;;;5076261;28;20243;-75
2021/06/27 07:14:07;;;;;;;1999.90;999.90;;;20.00;99.90;;;;;;5076431;28;20218;-76
2021/06/27 07:16:33;;;;;;;1999.90;999.90;;;20.00;99.90;;;;;;5095034;28;20183;-75
2021/06/27 07:18:59;;;;;;;1999.90;999.90;;;20.10;99.90;;;;;;5076343;28;20638;-75
2021/06/27 07:21:27;;;;;;;1999.90;999.90;;;20.10;99.90;;;;;;5094610;28;20244;-75
2021/06/27 07:23:53;;;;;;;1999.90;999.90;;;20.30;99.90;;;;;;5094321;28;20184;-75
2021/06/27 07:26:19;;;;;;;1999.90;999.90;;;20.40;99.90;;;;;;5094314;28;20266;-75
2021/06/27 07:28:44;;;;;;;1999.90;999.90;;;20.50;99.90;;;;;;5094237;28;20291;-75
2021/06/27 07:31:10;;;;;;;1999.90;999.90;;;20.70;99.90;;;;;;5094096;28;20575;-74
2021/06/27 07:33:37;;;;;;;1999.90;999.90;;;20.90;99.90;;;;;;5094331;28;20730;-75
2021/06/27 07:36:03;;;;;;;1999.90;999.90;;;21.00;99.90;;;;;;5094458;28;20548;-75
2021/06/27 07:38:28;;;;;;;1999.90;999.90;;;20.90;99.90;;;;;;5093918;28;20267;-75
2021/06/27 07:40:54;;;;;;;1999.90;999.90;;;20.90;99.90;;;;;;5075745;28;20291;-75
2021/06/27 07:43:20;;;;;;;1999.90;999.90;;;21.00;99.90;;;;;;5094473;28;20323;-75
2021/06/27 07:45:46;;;;;;;1999.90;999.90;;;21.20;99.90;;;;;;5076635;28;20708;-75
2021/06/27 07:48:12;;;;;;;1999.90;999.90;;;21.20;99.90;;;;;;5093887;28;20196;-75
2021/06/27 07:50:38;;;;;;;1999.90;999.90;;;21.20;99.90;;;;;;5082847;28;20188;-75
2021/06/27 07:53:04;;;;;;;1999.90;999.90;;;21.10;99.90;;;;;;5074471;28;20192;-75
2021/06/27 07:55:30;;;;;;;1999.90;999.90;;;21.10;99.90;;;;;;5079367;28;20187;-74
2021/06/27 07:57:56;;;;;;;1999.90;999.90;;;21.10;99.90;;;;;;5075594;28;20180;-75
2021/06/27 08:00:22;;;;;;;1999.90;999.90;;;21.20;99.90;;;;;;5091621;28;20275;-75
2021/06/27 08:02:48;;;;;;;1999.90;999.90;;;21.40;99.90;;;;;;5093168;28;20203;-74
2021/06/27 08:05:13;;;;;;;1999.90;999.90;;;21.50;99.90;;;;;;5075367;28;20177;-75
2021/06/27 08:07:40;;;;;;;1999.90;999.90;;;21.70;99.90;;;;;;5092637;28;20239;-75
2021/06/27 08:10:08;;;;;;;1999.90;999.90;;;21.80;99.90;;;;;;5092899;28;20180;-75
2021/06/27 08:12:34;;;;;;;1999.90;999.90;;;22.00;99.90;;;;;;5075189;28;20667;-75
2021/06/27 08:15:00;;;;;;;1999.90;999.90;;;22.20;99.90;;;;;;5093509;28;20184;-75
2021/06/27 08:17:26;;;;;;;1999.90;999.90;;;22.40;99.90;;;;;;5074892;28;20259;-76
2021/06/27 08:19:52;;;;;;;1999.90;999.90;;;22.60;99.90;;;;;;5093610;28;20250;-74
2021/06/27 08:22:17;;;;;;;1999.90;999.90;;;22.60;99.90;;;;;;5092013;28;20299;-75
2021/06/27 08:24:43;;;;;;;1999.90;999.90;;;22.60;99.90;;;;;;5091436;28;20180;-75
2021/06/27 08:27:10;;;;;;;1999.90;999.90;;;22.70;99.90;;;;;;5091444;28;20293;-75
2021/06/27 08:29:36;;;;;;;1999.90;999.90;;;22.70;99.90;;;;;;5091500;28;20172;-75
2021/06/27 08:32:03;;;;;;;1999.90;999.90;;;22.70;99.90;;;;;;5093282;28;20193;-75
2021/06/27 08:34:29;;;;;;;1999.90;999.90;;;22.70;99.90;;;;;;5092618;28;20187;-75
2021/06/27 08:36:55;;;;;;;1999.90;999.90;;;22.70;99.90;;;;;;5071438;28;20186;-76
2021/06/27 08:39:21;;;;;;;1999.90;999.90;;;22.90;99.90;;;;;;5074716;28;20651;-75
2021/06/27 08:41:48;;;;;;;1999.90;999.90;;;23.10;99.90;;;;;;5088853;28;20620;-75
2021/06/27 08:44:13;;;;;;;1999.90;999.90;;;23.30;99.90;;;;;;5091655;28;20195;-75
2021/06/27 08:46:43;;;;;;;1999.90;999.90;;;23.30;99.90;;;;;;5092942;28;20177;-76
2021/06/27 08:49:11;;;;;;;1999.90;999.90;;;23.50;99.90;;;;;;5092736;28;20219;-76
2021/06/27 08:51:39;;;;;;;1999.90;999.90;;;23.40;99.90;;;;;;5096040;28;20212;-76
2021/06/27 08:54:06;;;;;;;1999.90;999.90;;;23.40;99.90;;;;;;5097210;28;20168;-75
2021/06/27 08:56:33;;;;;;;1999.90;999.90;;;23.60;99.90;;;;;;5090170;28;20176;-75
2021/06/27 08:58:59;;;;;;;1999.90;999.90;;;23.70;99.90;;;;;;5097203;28;20225;-75
2021/06/27 09:01:24;;;;;;;1999.90;999.90;;;23.90;99.90;;;;;;5096800;28;20196;-75
2021/06/27 09:03:52;;;;;;;1999.90;999.90;;;24.00;99.90;;;;;;5095884;28;20200;-75
2021/06/27 09:06:40;;;;;;;1999.90;999.90;;;24.10;99.90;;;;;;5097120;28;20238;-76
2021/06/27 09:09:08;;;;;;;1999.90;999.90;;;24.20;99.90;;;;;;5096967;28;20203;-75
2021/06/27 09:11:36;;;;;;;1999.90;999.90;;;24.30;99.90;;;;;;5096854;28;20241;-74
2021/06/27 09:14:02;;;;;;;1999.90;999.90;;;24.40;99.90;;;;;;5096439;28;20172;-75
2021/06/27 09:16:28;;;;;;;1999.90;999.90;;;24.50;99.90;;;;;;5097061;28;20554;-75
2021/06/27 09:19:00;;;;;;;1999.90;999.90;;;24.50;99.90;;;;;;5078229;28;20242;-76
2021/06/27 09:21:26;;;;;;;1999.90;999.90;;;24.50;99.90;;;;;;5095256;28;20207;-76
2021/06/27 09:23:52;;;;;;;1999.90;999.90;;;24.70;99.90;;;;;;5096654;28;20179;-76
2021/06/27 09:26:30;;;;;;;1999.90;999.90;;;25.00;99.90;;;;;;5096522;28;20200;-76
2021/06/27 09:28:57;;;;;;;1999.90;999.90;;;25.10;99.90;;;;;;5096684;28;20241;-76
2021/06/27 09:31:39;;;;;;;1999.90;999.90;;;25.20;99.90;;;;;;5095688;28;20196;-76
2021/06/27 09:34:07;;;;;;;1999.90;999.90;;;25.30;99.90;;;;;;5095292;28;20187;-76
2021/06/27 09:36:35;;;;;;;1999.90;999.90;;;25.30;99.90;;;;;;5077082;28;20172;-75
2021/06/27 09:39:13;;;;;;;1999.90;999.90;;;25.40;99.90;;;;;;5094620;28;20177;-75
2021/06/27 09:41:53;;;;;;;1999.90;999.90;;;25.30;99.90;;;;;;5092319;28;20202;-76
2021/06/27 09:44:21;;;;;;;1999.90;999.90;;;25.40;99.90;;;;;;5093925;28;20693;-76
2021/06/27 09:46:53;;;;;;;1999.90;999.90;;;25.60;99.90;;;;;;5075295;28;20185;-75
2021/06/27 09:49:25;;;;;;;1999.90;999.90;;;25.70;99.90;;;;;;5093622;28;20279;-75
2021/06/27 09:51:53;;;;;;;1999.90;999.90;;;25.80;99.90;;;;;;5091830;28;20738;-76
2021/06/27 09:54:21;;;;;;;1999.90;999.90;;;25.70;99.90;;;;;;5094000;28;20173;-76
2021/06/27 09:56:48;;;;;;;1999.90;999.90;;;25.80;99.90;;;;;;5092225;28;20176;-76
2021/06/27 09:59:19;;;;;;;1999.90;999.90;;;25.80;99.90;;;;;;5074781;28;20183;-76
2021/06/27 10:01:45;;;;;;;1999.90;999.90;;;25.80;99.90;;;;;;5094798;28;20219;-74
2021/06/27 10:04:27;;;;;;;1999.90;999.90;;;25.80;99.90;;;;;;5095819;28;20203;-76
2021/06/27 10:06:55;;;;;;;1999.90;999.90;;;25.90;99.90;;;;;;5094677;28;20195;-76
2021/06/27 10:09:24;;;;;;;1999.90;999.90;;;26.10;99.90;;;;;;5095015;28;20650;-76
2021/06/27 10:12:07;;;;;;;1999.90;999.90;;;26.10;99.90;;;;;;5095906;28;20301;-76
2021/06/27 10:14:34;;;;;;;1999.90;999.90;;;26.10;99.90;;;;;;5078739;28;20176;-76
2021/06/27 10:17:02;;;;;;;1999.90;999.90;;;26.10;99.90;;;;;;5095823;28;20263;-76
2021/06/27 10:19:28;;;;;;;1999.90;999.90;;;26.20;99.90;;;;;;5095687;28;20658;-76
2021/06/27 10:21:55;;;;;;;1999.90;999.90;;;26.10;99.90;;;;;;5095762;28;20220;-76
2021/06/27 10:24:22;;;;;;;1999.90;999.90;;;26.10;99.90;;;;;;5095521;28;20226;-76
2021/06/27 10:26:49;;;;;;;1999.90;999.90;;;26.20;99.90;;;;;;5095713;28;20184;-76
2021/06/27 10:29:16;;;;;;;1999.90;999.90;;;26.30;99.90;;;;;;5077216;28;20221;-76
2021/06/27 10:31:43;;;;;;;1999.90;999.90;;;26.20;99.90;;;;;;5095313;28;20570;-76
2021/06/27 10:34:08;;;;;;;1999.90;999.90;;;26.30;99.90;;;;;;5095339;28;20176;-76
2021/06/27 10:36:37;;;;;;;1999.90;999.90;;;26.40;99.90;;;;;;5095522;28;20209;-76
2021/06/27 10:39:09;;;;;;;1999.90;999.90;;;26.50;99.90;;;;;;5095545;28;20271;-76
2021/06/27 10:41:59;;;;;;;1999.90;999.90;;;26.70;99.90;;;;;;5077606;28;20261;-76
2021/06/27 10:44:28;;;;;;;1999.90;999.90;;;26.90;99.90;;;;;;5094839;28;20173;-76
2021/06/27 10:46:58;;;;;;;1999.90;999.90;;;26.70;99.90;;;;;;5095302;28;20176;-76
2021/06/27 10:49:30;;;;;;;1999.90;999.90;;;26.70;99.90;;;;;;5094984;28;20206;-76
2021/06/27 10:52:09;;;;;;;1999.90;999.90;;;26.70;99.90;;;;;;5094975;28;20212;-76
2021/06/27 10:54:36;;;;;;;1999.90;999.90;;;26.60;99.90;;;;;;5069913;28;20180;-75
2021/06/27 10:57:16;;;;;;;1999.90;999.90;;;26.70;99.90;;;;;;5070664;28;20696;-76
2021/06/27 10:59:42;;;;;;;1999.90;999.90;;;26.90;99.90;;;;;;5095152;28;20669;-76
2021/06/27 11:02:16;;;;;;;1999.90;999.90;;;27.00;99.90;;;;;;5082495;28;20189;-76
2021/06/27 11:04:42;;;;;;;1999.90;999.90;;;27.00;99.90;;;;;;5076604;28;20650;-76
2021/06/27 11:07:08;;;;;;;1999.90;999.90;;;27.00;99.90;;;;;;5094608;28;20180;-76
2021/06/27 11:09:33;;;;;;;1999.90;999.90;;;26.90;99.90;;;;;;5094684;28;20635;-76
2021/06/27 11:11:59;;;;;;;1999.90;999.90;;;26.90;99.90;;;;;;5094389;28;20222;-76
2021/06/27 11:14:26;;;;;;;1999.90;999.90;;;27.20;99.90;;;;;;5071897;28;20651;-75
2021/06/27 11:17:05;;;;;;;1999.90;999.90;;;27.50;99.90;;;;;;5093806;28;20188;-76
2021/06/27 11:19:36;;;;;;;1999.90;999.90;;;27.50;99.90;;;;;;5092880;28;20189;-75
2021/06/27 11:22:22;;;;;;;1999.90;999.90;;;27.60;99.90;;;;;;5093744;28;20686;-76
2021/06/27 11:24:53;;;;;;;1999.90;999.90;;;27.50;99.90;;;;;;5094833;28;20563;-76
2021/06/27 11:27:29;;;;;;;1999.90;999.90;;;27.40;99.90;;;;;;5094184;28;20190;-76
2021/06/27 11:29:56;;;;;;;1999.90;999.90;;;27.50;99.90;;;;;;5076106;28;20181;-76
2021/06/27 11:32:24;;;;;;;1999.90;999.90;;;27.40;99.90;;;;;;5094159;28;20192;-76
2021/06/27 11:34:58;;;;;;;1999.90;999.90;;;27.60;99.90;;;;;;5094434;28;20176;-76
2021/06/27 11:37:23;;;;;;;1999.90;999.90;;;27.70;99.90;;;;;;5094041;28;20659;-76
2021/06/27 11:39:53;;;;;;;1999.90;999.90;;;27.60;99.90;;;;;;5094541;28;20187;-76
2021/06/27 11:42:31;;;;;;;1999.90;999.90;;;27.70;99.90;;;;;;5093917;28;20196;-76
2021/06/27 11:45:05;;;;;;;1999.90;999.90;;;28.00;99.90;;;;;;5094207;28;20182;-76
2021/06/27 11:47:39;;;;;;;1999.90;999.90;;;27.90;99.90;;;;;;5093858;28;20195;-76
2021/06/27 11:50:23;;;;;;;1999.90;999.90;;;27.90;99.90;;;;;;5093994;28;20184;-76
2021/06/27 11:52:51;;;;;;;1999.90;999.90;;;28.10;99.90;;;;;;5102661;22;20225;-81
2021/06/27 11:55:17;;;;;;;1999.90;999.90;;;28.00;99.90;;;;;;5080497;28;20200;-81
2021/06/27 11:57:43;;;;;;;1999.90;999.90;;;27.80;99.90;;;;;;5079809;28;20417;-81
2021/06/27 12:00:11;;;;;;;1999.90;999.90;;;27.70;99.90;;;;;;5062668;28;20468;-81